Time;durP1;ratioP1;P1;durP2;ratioP2;P2;SDS_P1;SDS_P2;PMS_P1;PMS_P2;Temp;Humidity;BMP_temperature;BMP_pressure;BME280_temperature;BME280_humidity;BME280_pressure;Samples;Min_cycle;Max_cycle;Signal;HPM_P1;HPM_P2
2023/01/05 00:01:35;;;;;;;0.10;0.10;;;;;;;4.86;100.00;99074.19;5106850;28;20101;-68
2023/01/05 00:04:01;;;;;;;0.10;0.10;;;;;;;4.99;100.00;99114.19;5109847;28;20059;-68
2023/01/05 00:06:26;;;;;;;0.20;0.10;;;;;;;5.09;100.00;99113.78;5100282;28;20043;-68
2023/01/05 00:08:52;;;;;;;0.10;0.00;;;;;;;5.24;100.00;99119.72;5113377;28;20494;-70
2023/01/05 00:22:29;;;;;;;1.63;0.20;;;;;;;4.72;100.00;99122.13;5103798;28;20043;-69
2023/01/05 00:25:09;;;;;;;0.20;0.10;;;;;;;4.78;100.00;99141.84;5087046;28;20024;-68
2023/01/05 00:27:35;;;;;;;0.28;0.10;;;;;;;4.50;100.00;99117.16;5104657;28;20402;-68
2023/01/05 00:30:00;;;;;;;0.30;0.10;;;;;;;4.39;100.00;99116.75;5111736;28;20028;-69
2023/01/05 00:32:27;;;;;;;0.10;0.10;;;;;;;4.47;100.00;99135.22;5104354;28;20059;-69
2023/01/05 00:34:57;;;;;;;0.30;0.10;;;;;;;4.47;100.00;99153.03;5087063;28;20031;-69
2023/01/05 00:37:25;;;;;;;0.10;0.10;;;;;;;4.27;100.00;99150.28;5112143;28;20030;-69
2023/01/05 00:39:51;;;;;;;0.20;0.10;;;;;;;4.35;100.00;99146.63;5110957;28;20016;-69
2023/01/05 00:42:17;;;;;;;0.73;0.20;;;;;;;4.60;100.00;99155.75;5104034;28;20024;-69
2023/01/05 00:44:42;;;;;;;0.10;0.10;;;;;;;4.42;100.00;99171.44;5116606;28;20027;-69
2023/01/05 00:47:08;;;;;;;0.10;0.10;;;;;;;4.40;100.00;99171.66;5104372;28;20031;-69
2023/01/05 00:49:33;;;;;;;0.08;0.00;;;;;;;4.04;100.00;99158.59;5110385;28;20047;-69
2023/01/05 00:51:59;;;;;;;0.00;0.00;;;;;;;4.27;100.00;99163.59;5113240;28;20039;-69
2023/01/05 00:54:24;;;;;;;0.80;0.05;;;;;;;4.19;100.00;99151.28;5103477;28;20054;-69
2023/01/05 00:56:49;;;;;;;0.47;0.10;;;;;;;4.33;100.00;99167.31;5098817;28;20100;-69
2023/01/05 00:59:16;;;;;;;0.00;0.00;;;;;;;4.10;100.00;99164.94;5105434;28;20196;-69
2023/01/05 01:01:45;;;;;;;0.10;0.10;;;;;;;3.99;100.00;99187.63;5110052;27;20028;-69
2023/01/05 01:04:11;;;;;;;0.68;0.08;;;;;;;4.08;100.00;99194.44;5112935;28;20027;-68
2023/01/05 01:06:36;;;;;;;0.10;0.10;;;;;;;4.36;100.00;99193.53;5103490;28;20036;-69
2023/01/05 01:09:02;;;;;;;0.00;0.00;;;;;;;4.03;100.00;99198.69;5115207;28;20111;-69
2023/01/05 01:11:27;;;;;;;0.00;0.00;;;;;;;4.03;100.00;99207.50;5106603;28;20040;-69
2023/01/05 01:13:53;;;;;;;0.10;0.10;;;;;;;3.89;100.00;99206.59;5108096;28;20063;-69
2023/01/05 01:16:18;;;;;;;0.00;0.00;;;;;;;3.97;100.00;99200.28;5113919;28;20500;-68
2023/01/05 01:18:44;;;;;;;0.10;0.00;;;;;;;3.89;100.00;99201.28;5102908;28;20105;-68
2023/01/05 01:21:09;;;;;;;0.35;0.10;;;;;;;4.00;100.00;99189.25;5113833;27;20019;-68
2023/01/05 01:23:38;;;;;;;0.17;0.00;;;;;;;4.02;100.00;99195.22;5087780;28;20040;-69
2023/01/05 01:26:05;;;;;;;0.10;0.10;;;;;;;3.89;100.00;99197.81;5103432;28;20067;-69
2023/01/05 01:28:31;;;;;;;0.28;0.00;;;;;;;4.08;100.00;99239.69;5115949;28;20086;-69
2023/01/05 01:30:56;;;;;;;0.10;0.00;;;;;;;4.11;100.00;99231.31;5102088;28;20107;-70
2023/01/05 01:33:22;;;;;;;0.75;0.00;;;;;;;3.73;100.00;99206.91;5112213;28;20505;-68
2023/01/05 01:35:47;;;;;;;0.20;0.10;;;;;;;3.97;100.00;99249.03;5108559;28;20102;-68
2023/01/05 01:38:12;;;;;;;0.10;0.00;;;;;;;4.03;100.00;99265.25;5104746;28;20172;-70
2023/01/05 01:40:44;;;;;;;0.10;0.00;;;;;;;4.09;100.00;99270.59;5114067;28;20406;-68
2023/01/05 01:43:14;;;;;;;0.10;0.00;;;;;;;4.12;100.00;99290.69;5103089;28;20020;-69
2023/01/05 01:45:39;;;;;;;0.00;0.00;;;;;;;4.05;100.00;99295.97;5107477;28;20339;-68
2023/01/05 01:48:06;;;;;;;0.25;0.08;;;;;;;3.56;100.00;99227.66;5111450;28;20034;-68
2023/01/05 01:50:35;;;;;;;0.00;0.00;;;;;;;4.08;100.00;99316.06;5101560;28;20403;-68
2023/01/05 01:53:28;;;;;;;1.00;0.00;;;;;;;3.90;100.00;99332.50;5115093;28;20024;-68
2023/01/05 01:55:56;;;;;;;0.03;0.00;;;;;;;3.88;100.00;99327.38;5110215;28;20059;-68
2023/01/05 01:58:27;;;;;;;0.43;0.03;;;;;;;3.97;100.00;99334.22;5101328;28;20032;-68
2023/01/05 02:00:53;;;;;;;0.15;0.00;;;;;;;3.98;100.00;99346.50;5115086;28;20031;-68
2023/01/05 02:03:18;;;;;;;0.28;0.00;;;;;;;4.03;100.00;99351.22;5105137;28;20036;-68
2023/01/05 02:05:44;;;;;;;0.28;0.00;;;;;;;3.79;100.00;99309.88;5108166;28;20107;-69
2023/01/05 02:08:14;;;;;;;0.03;0.00;;;;;;;4.02;100.00;99360.25;5111325;28;20024;-68
2023/01/05 02:10:49;;;;;;;0.20;0.05;;;;;;;4.00;100.00;99359.59;5100622;28;20032;-68
2023/01/05 02:13:36;;;;;;;0.10;0.00;;;;;;;4.04;100.00;99362.69;5112346;28;20396;-70
2023/01/05 02:16:15;;;;;;;0.00;0.00;;;;;;;4.11;100.00;99382.22;5111183;28;20043;-68
2023/01/05 02:19:12;;;;;;;0.00;0.00;;;;;;;3.98;100.00;99406.88;5100393;28;20048;-68
2023/01/05 02:22:21;;;;;;;0.10;0.00;;;;;;;3.83;100.00;99400.78;5109351;28;20028;-68
2023/01/05 02:25:05;;;;;;;1.17;0.00;;;;;;;3.90;100.00;99412.31;5113498;28;20454;-68
2023/01/05 02:27:38;;;;;;;0.00;0.00;;;;;;;4.06;100.00;99428.03;5106722;28;20035;-68
2023/01/05 02:30:41;;;;;;;1.00;0.10;;;;;;;3.99;100.00;99430.63;5104284;28;20043;-68
2023/01/05 02:33:15;;;;;;;0.10;0.10;;;;;;;3.97;100.00;99437.16;5088000;28;20092;-68
2023/01/05 02:35:46;;;;;;;0.25;0.00;;;;;;;3.93;100.00;99439.38;5108739;28;20047;-68
2023/01/05 02:38:17;;;;;;;0.90;0.00;;;;;;;3.89;100.00;99439.94;5111206;28;20386;-68
2023/01/05 02:40:50;;;;;;;0.43;0.00;;;;;;;3.98;100.00;99460.94;5101378;28;20035;-68
2023/01/05 02:43:21;;;;;;;0.17;0.00;;;;;;;3.71;100.00;99459.00;5111079;28;20051;-68
2023/01/05 02:45:47;;;;;;;0.00;0.00;;;;;;;3.93;100.00;99499.75;5108501;28;20019;-68
2023/01/05 02:48:12;;;;;;;1.95;0.08;;;;;;;4.11;100.00;99513.50;5086233;28;20032;-68
2023/01/05 02:50:50;;;;;;;0.08;0.00;;;;;;;3.99;100.00;99530.94;5114857;28;20088;-68
2023/01/05 02:53:37;;;;;;;0.05;0.00;;;;;;;4.05;100.00;99534.72;5104044;28;20031;-71
2023/01/05 02:56:02;;;;;;;0.00;0.00;;;;;;;4.09;100.00;99543.97;5105672;28;20031;-68
2023/01/05 02:58:30;;;;;;;0.88;0.32;;;;;;;4.04;100.00;99557.00;5114392;28;20393;-70
2023/01/05 03:01:00;;;;;;;0.00;0.00;;;;;;;4.11;100.00;99563.25;5101754;28;20106;-68
2023/01/05 03:03:40;;;;;;;1.85;0.10;;;;;;;3.95;100.00;99546.47;5109856;28;20386;-70
2023/01/05 03:06:11;;;;;;;0.40;0.00;;;;;;;3.99;100.00;99574.34;5110902;28;20083;-68
2023/01/05 03:08:59;;;;;;;0.00;0.00;;;;;;;4.04;100.00;99559.66;5100327;28;20452;-70
2023/01/05 03:15:23;;;;;;;0.00;0.00;;;;;;;3.80;100.00;99574.94;5054905;28;20052;-68
2023/01/05 03:17:54;;;;;;;0.00;0.00;;;;;;;3.82;100.00;99590.72;5034975;28;20128;-68
2023/01/05 03:20:23;;;;;;;0.03;0.00;;;;;;;3.61;100.00;99549.75;5050294;28;20483;-68
2023/01/05 03:37:06;;;;;;;0.00;0.00;;;;;;;3.46;100.00;99626.84;5054703;28;20091;-68
2023/01/05 03:39:34;;;;;;;0.00;0.00;;;;;;;3.45;100.00;99619.06;5038492;28;20470;-68
2023/01/05 03:42:00;;;;;;;0.40;0.00;;;;;;;3.53;100.00;99622.47;5061276;28;20044;-68
2023/01/05 03:44:26;;;;;;;0.00;0.00;;;;;;;3.58;100.00;99642.38;5027692;28;20043;-70
2023/01/05 03:46:51;;;;;;;0.00;0.00;;;;;;;3.44;100.00;99623.53;5112389;28;20039;-69
2023/01/05 03:49:17;;;;;;;0.00;0.00;;;;;;;3.49;100.00;99633.66;5103606;28;20046;-67
2023/01/05 03:51:43;;;;;;;0.00;0.00;;;;;;;3.57;100.00;99660.16;5106937;28;20051;-69
2023/01/05 03:54:09;;;;;;;0.00;0.00;;;;;;;3.47;100.00;99659.59;5111636;28;20028;-67
2023/01/05 03:56:35;;;;;;;0.00;0.00;;;;;;;3.56;100.00;99684.28;5103972;28;20028;-67
2023/01/05 03:59:00;;;;;;;0.80;0.00;;;;;;;3.64;100.00;99702.81;5116732;28;20120;-67
2023/01/05 04:01:26;;;;;;;0.55;0.10;;;;;;;3.46;100.00;99721.78;5107587;28;20028;-67
2023/01/05 04:03:53;;;;;;;0.10;0.00;;;;;;;3.40;100.00;99719.81;5109558;28;20095;-68
2023/01/05 04:06:19;;;;;;;0.00;0.00;;;;;;;3.45;100.00;99709.50;5115320;28;20028;-69
2023/01/05 04:08:44;;;;;;;0.00;0.00;;;;;;;3.10;100.00;99674.53;5104967;27;20083;-67
2023/01/05 04:11:19;;;;;;;0.00;0.00;;;;;;;3.25;100.00;99703.84;5098628;28;20115;-67
2023/01/05 04:13:44;;;;;;;0.00;0.00;;;;;;;3.25;100.00;99741.06;5111221;28;20031;-67
2023/01/05 04:16:15;;;;;;;0.00;0.00;;;;;;;3.56;100.00;99748.94;5106963;28;20039;-67
2023/01/05 04:18:40;;;;;;;0.00;0.00;;;;;;;3.24;100.00;99750.84;5117558;28;20297;-67
2023/01/05 04:21:10;;;;;;;0.00;0.00;;;;;;;3.46;100.00;99754.50;5104230;28;20076;-67
2023/01/05 04:23:35;;;;;;;0.08;0.00;;;;;;;3.34;100.00;99760.44;5113054;28;20035;-67
2023/01/05 04:26:01;;;;;;;0.20;0.00;;;;;;;3.04;100.00;99757.63;5100951;28;20039;-67
2023/01/05 04:28:27;;;;;;;0.00;0.00;;;;;;;3.26;100.00;99801.19;5115605;28;20020;-67
2023/01/05 04:30:54;;;;;;;0.10;0.00;;;;;;;3.40;100.00;99783.66;5086030;28;20036;-66
2023/01/05 04:33:20;;;;;;;0.22;0.00;;;;;;;3.23;100.00;99804.22;5115686;28;20024;-67
2023/01/05 04:35:46;;;;;;;0.00;0.00;;;;;;;3.40;100.00;99813.72;5110967;28;20038;-66
2023/01/05 04:38:12;;;;;;;0.22;0.00;;;;;;;3.27;100.00;99816.97;5108114;28;20035;-69
2023/01/05 04:40:38;;;;;;;0.10;0.00;;;;;;;3.28;100.00;99831.94;5116202;28;20466;-67
2023/01/05 04:43:04;;;;;;;0.00;0.00;;;;;;;3.13;100.00;99830.19;5104755;28;20093;-67
2023/01/05 04:45:29;;;;;;;0.00;0.00;;;;;;;2.91;100.00;99810.53;5114938;28;20036;-67
2023/01/05 04:47:55;;;;;;;0.08;0.00;;;;;;;3.14;100.00;99858.41;5094098;28;20413;-66
2023/01/05 04:50:20;;;;;;;0.00;0.00;;;;;;;3.03;100.00;99830.41;5106698;28;20034;-66
2023/01/05 04:52:45;;;;;;;0.00;0.00;;;;;;;3.20;100.00;99881.66;5117556;28;20049;-66
2023/01/05 04:55:11;;;;;;;0.10;0.10;;;;;;;3.18;100.00;99891.63;5104236;28;20035;-66
2023/01/05 04:57:37;;;;;;;0.00;0.00;;;;;;;3.30;100.00;99914.97;5112167;28;20044;-66
2023/01/05 05:00:03;;;;;;;0.00;0.00;;;;;;;3.39;100.00;99891.03;5111206;28;20115;-66
2023/01/05 05:02:29;;;;;;;1.38;0.00;;;;;;;3.19;100.00;99901.25;5102694;28;20513;-66
2023/01/05 05:04:57;;;;;;;0.10;0.10;;;;;;;3.32;100.00;99929.97;5115935;28;20031;-66
2023/01/05 05:07:22;;;;;;;0.30;0.10;;;;;;;3.29;100.00;99934.59;5106607;28;20454;-66
2023/01/05 05:09:48;;;;;;;0.05;0.00;;;;;;;3.06;100.00;99928.41;5109634;28;20107;-66
2023/01/05 05:12:14;;;;;;;0.38;0.10;;;;;;;3.23;100.00;99964.53;5113352;28;20034;-68
2023/01/05 05:14:40;;;;;;;0.00;0.00;;;;;;;3.23;100.00;99977.00;5101616;28;20039;-66
2023/01/05 05:17:05;;;;;;;0.73;0.08;;;;;;;3.25;100.00;99986.47;5114960;28;20028;-66
2023/01/05 05:19:31;;;;;;;4.65;0.35;;;;;;;3.39;100.00;100003.53;5107244;28;20035;-66
2023/01/05 05:21:56;;;;;;;0.45;0.10;;;;;;;3.13;100.00;100009.09;5112415;28;20024;-66
2023/01/05 05:24:21;;;;;;;0.00;0.00;;;;;;;3.06;100.00;100005.47;5103543;28;20487;-69
2023/01/05 05:26:47;;;;;;;0.10;0.08;;;;;;;3.18;100.00;100038.69;5114817;28;20063;-67
2023/01/05 05:29:12;;;;;;;0.10;0.00;;;;;;;3.15;100.00;100041.69;5097645;28;20028;-67
2023/01/05 05:31:38;;;;;;;0.00;0.00;;;;;;;3.07;100.00;100031.03;5102942;28;20035;-67
2023/01/05 05:34:03;;;;;;;0.25;0.00;;;;;;;3.26;100.00;100056.44;5098748;28;20112;-69
2023/01/05 05:36:29;;;;;;;0.13;0.10;;;;;;;3.22;100.00;100058.59;5097747;28;20044;-68
2023/01/05 05:38:55;;;;;;;0.65;0.10;;;;;;;3.18;100.00;100054.63;5099230;28;20032;-66
2023/01/05 05:41:21;;;;;;;0.00;0.00;;;;;;;2.77;100.00;100069.78;5111438;28;20020;-67
2023/01/05 05:43:46;;;;;;;0.10;0.10;;;;;;;2.98;100.00;100075.44;5097637;28;20024;-68
2023/01/05 05:46:11;;;;;;;0.15;0.10;;;;;;;2.92;100.00;100072.63;5111655;28;20059;-67
2023/01/05 05:48:37;;;;;;;0.60;0.15;;;;;;;2.78;100.00;100074.09;5099867;28;20063;-67
2023/01/05 05:51:02;;;;;;;0.10;0.10;;;;;;;2.93;100.00;100092.88;5115061;28;20727;-69
2023/01/05 05:53:28;;;;;;;0.30;0.10;;;;;;;2.95;100.00;100102.34;5105265;28;20044;-67
2023/01/05 05:55:53;;;;;;;0.50;0.10;;;;;;;2.94;100.00;100113.94;5113903;28;20028;-67
2023/01/05 05:58:19;;;;;;;0.10;0.10;;;;;;;2.98;100.00;100131.25;5102507;28;20452;-67
2023/01/05 06:00:45;;;;;;;0.10;0.10;;;;;;;3.00;100.00;100149.66;5096720;28;20049;-67
2023/01/05 06:03:11;;;;;;;0.30;0.20;;;;;;;3.19;100.00;100162.63;5096095;28;20039;-67
2023/01/05 06:05:36;;;;;;;0.50;0.20;;;;;;;3.17;100.00;100169.09;5103644;28;20032;-67
2023/01/05 06:08:02;;;;;;;0.30;0.10;;;;;;;3.05;100.00;100174.75;5106778;28;20035;-66
2023/01/05 06:10:27;;;;;;;1.25;0.20;;;;;;;2.98;100.00;100180.88;5111452;28;20027;-67
2023/01/05 06:12:54;;;;;;;0.35;0.20;;;;;;;3.15;100.00;100166.63;5098221;28;20028;-67
2023/01/05 06:15:21;;;;;;;0.65;0.28;;;;;;;2.95;100.00;100195.34;5110989;28;20394;-67
2023/01/05 06:17:47;;;;;;;0.38;0.22;;;;;;;3.05;100.00;100197.84;5102694;28;20044;-67
2023/01/05 06:20:15;;;;;;;0.20;0.20;;;;;;;2.97;100.00;100198.66;5110947;28;20089;-67
2023/01/05 06:22:41;;;;;;;0.45;0.20;;;;;;;3.06;100.00;100216.28;5102921;28;20039;-67
2023/01/05 06:25:07;;;;;;;0.30;0.10;;;;;;;2.93;100.00;100226.56;5103339;28;20043;-66
2023/01/05 06:27:32;;;;;;;0.20;0.13;;;;;;;2.87;100.00;100221.91;5104526;28;20028;-67
2023/01/05 06:29:58;;;;;;;0.38;0.20;;;;;;;2.95;100.00;100245.00;5107825;28;20036;-67
2023/01/05 06:32:23;;;;;;;0.28;0.15;;;;;;;3.14;100.00;100249.16;5111274;28;20034;-69
2023/01/05 06:34:49;;;;;;;0.85;0.30;;;;;;;3.02;100.00;100246.03;5102805;28;20028;-66
2023/01/05 06:37:14;;;;;;;0.25;0.20;;;;;;;3.01;100.00;100276.22;5095857;28;20030;-69
2023/01/05 06:39:39;;;;;;;0.43;0.10;;;;;;;3.19;100.00;100271.63;5106730;28;20036;-69
2023/01/05 06:42:05;;;;;;;0.47;0.28;;;;;;;3.02;100.00;100251.34;5106317;28;20073;-66
2023/01/05 06:44:30;;;;;;;0.63;0.30;;;;;;;2.64;100.00;100279.28;5096536;28;20039;-66
2023/01/05 06:46:56;;;;;;;1.05;0.30;;;;;;;2.98;100.00;100295.16;5101650;28;20028;-69
2023/01/05 06:49:21;;;;;;;0.60;0.32;;;;;;;2.88;100.00;100302.44;5106036;28;20024;-66
2023/01/05 06:51:47;;;;;;;0.40;0.40;;;;;;;2.90;100.00;100316.41;5106032;28;20434;-66
2023/01/05 06:54:13;;;;;;;0.65;0.30;;;;;;;2.77;100.00;100315.03;5105663;28;20036;-66
2023/01/05 06:56:38;;;;;;;0.47;0.30;;;;;;;2.89;100.00;100320.91;5114358;28;20027;-66
2023/01/05 06:59:04;;;;;;;0.38;0.30;;;;;;;3.04;100.00;100327.22;5098603;28;20032;-67
2023/01/05 07:01:29;;;;;;;1.30;0.35;;;;;;;2.94;100.00;100350.47;5073245;28;20047;-67
2023/01/05 07:03:54;;;;;;;0.82;0.30;;;;;;;2.89;100.00;100358.09;5103971;28;20047;-67
2023/01/05 07:06:20;;;;;;;1.58;0.38;;;;;;;2.92;100.00;100359.59;5111749;28;20031;-66
2023/01/05 07:08:45;;;;;;;2.22;0.60;;;;;;;2.86;100.00;100366.38;5082618;28;20039;-66
2023/01/05 07:11:12;;;;;;;0.47;0.38;;;;;;;2.93;100.00;100370.06;5113549;28;20110;-66
2023/01/05 07:13:38;;;;;;;0.52;0.40;;;;;;;2.88;100.00;100382.16;5104378;28;20032;-67
2023/01/05 07:16:03;;;;;;;0.38;0.38;;;;;;;2.89;100.00;100410.41;5106758;28;20032;-67
2023/01/05 07:18:29;;;;;;;0.20;0.15;;;;;;;2.95;100.00;100415.09;5112233;28;20066;-66
2023/01/05 07:20:54;;;;;;;1.08;0.32;;;;;;;3.00;100.00;100418.94;5099820;28;20023;-66
2023/01/05 07:23:20;;;;;;;1.83;0.30;;;;;;;2.82;100.00;100427.00;5110972;28;20028;-66
2023/01/05 07:25:45;;;;;;;0.85;0.40;;;;;;;3.01;100.00;100435.69;5105639;28;20051;-66
2023/01/05 07:28:10;;;;;;;0.65;0.50;;;;;;;3.06;100.00;100434.25;5102558;28;20112;-66
2023/01/05 07:30:36;;;;;;;0.88;0.40;;;;;;;2.86;100.00;100446.09;5111605;28;20032;-66
2023/01/05 07:33:01;;;;;;;0.73;0.40;;;;;;;2.72;100.00;100444.03;5099280;28;20498;-66
2023/01/05 07:35:27;;;;;;;1.25;0.40;;;;;;;2.85;100.00;100462.19;5111004;28;20031;-66
2023/01/05 07:37:57;;;;;;;1.02;0.50;;;;;;;2.95;100.00;100471.75;5106349;28;20055;-66
2023/01/05 07:40:22;;;;;;;1.00;0.40;;;;;;;2.79;100.00;100488.41;5103039;28;20028;-66
2023/01/05 07:42:52;;;;;;;0.82;0.50;;;;;;;2.69;100.00;100474.41;5111916;28;20053;-66
2023/01/05 07:45:18;;;;;;;0.60;0.40;;;;;;;3.09;100.00;100514.69;5101130;28;20039;-66
2023/01/05 07:47:43;;;;;;;0.40;0.38;;;;;;;2.81;100.00;100520.13;5108251;28;20034;-66
2023/01/05 07:50:09;;;;;;;1.05;0.55;;;;;;;2.77;100.00;100526.75;5108830;28;20032;-66
2023/01/05 07:52:34;;;;;;;1.63;0.40;;;;;;;2.68;100.00;100539.16;5101432;28;20032;-66
2023/01/05 07:54:59;;;;;;;0.60;0.52;;;;;;;2.73;100.00;100542.16;5102832;28;20063;-67
2023/01/05 07:57:25;;;;;;;1.08;0.50;;;;;;;2.87;99.88;100551.41;5110843;28;20028;-66
2023/01/05 07:59:50;;;;;;;0.85;0.47;;;;;;;2.75;100.00;100552.66;5106671;28;20047;-67
2023/01/05 08:02:16;;;;;;;0.68;0.50;;;;;;;2.53;100.00;100562.75;5102749;28;20032;-67
2023/01/05 08:04:41;;;;;;;0.50;0.50;;;;;;;2.75;100.00;100558.81;5113925;28;20040;-67
2023/01/05 08:07:10;;;;;;;1.35;0.50;;;;;;;2.69;100.00;100554.09;5098822;28;20712;-67
2023/01/05 08:12:27;;;;;;;9.90;0.85;;;;;;;2.38;100.00;100536.88;5094899;28;20214;-67
2023/01/05 08:14:52;;;;;;;0.90;0.60;;;;;;;2.56;100.00;100554.50;5099385;28;20089;-67
2023/01/05 08:17:17;;;;;;;1.33;0.70;;;;;;;2.66;99.70;100580.97;5093015;28;20056;-67
2023/01/05 08:19:43;;;;;;;1.30;0.50;;;;;;;2.57;100.00;100576.56;5094828;28;20035;-70
2023/01/05 08:22:08;;;;;;;0.63;0.50;;;;;;;2.42;100.00;100581.59;5104114;28;20032;-67
2023/01/05 08:24:34;;;;;;;1.58;0.60;;;;;;;2.37;100.00;100606.94;5110842;28;20115;-67
2023/01/05 08:26:59;;;;;;;0.77;0.50;;;;;;;2.19;100.00;100567.09;5098236;28;20070;-66
2023/01/05 08:29:27;;;;;;;1.42;0.65;;;;;;;2.56;100.00;100612.09;5108427;28;20056;-66
2023/01/05 08:31:52;;;;;;;1.02;0.50;;;;;;;2.72;99.68;100640.63;5107795;28;20039;-66
2023/01/05 08:34:18;;;;;;;2.05;0.60;;;;;;;2.54;100.00;100661.88;5103638;28;20528;-66
2023/01/05 08:36:43;;;;;;;0.60;0.32;;;;;;;2.54;99.91;100672.50;5111146;28;20031;-66
2023/01/05 08:39:10;;;;;;;1.25;0.45;;;;;;;2.62;99.87;100691.19;5099742;28;20027;-66
2023/01/05 08:41:37;;;;;;;1.45;0.60;;;;;;;2.56;98.69;100650.13;5111367;28;20084;-66
2023/01/05 08:44:05;;;;;;;1.58;0.60;;;;;;;2.96;98.37;100690.50;5109299;28;20023;-66
2023/01/05 08:46:33;;;;;;;0.95;0.55;;;;;;;2.94;97.34;100716.38;5106620;28;20035;-65
2023/01/05 08:49:00;;;;;;;1.17;0.50;;;;;;;2.77;97.73;100718.06;5108449;28;20024;-67
2023/01/05 08:51:26;;;;;;;1.13;0.57;;;;;;;2.78;98.37;100717.94;5114538;28;20024;-67
2023/01/05 08:53:54;;;;;;;0.60;0.40;;;;;;;2.80;97.56;100715.94;5109349;28;20112;-67
2023/01/05 08:56:23;;;;;;;1.13;0.47;;;;;;;2.75;97.61;100725.38;5105487;28;20035;-66
2023/01/05 08:58:49;;;;;;;0.93;0.45;;;;;;;2.69;97.80;100747.22;5116849;28;20114;-67
2023/01/05 09:01:16;;;;;;;0.65;0.65;;;;;;;2.44;98.73;100743.41;5103854;28;20043;-66
2023/01/05 09:03:43;;;;;;;0.73;0.50;;;;;;;2.66;98.12;100756.31;5102138;28;20043;-67
2023/01/05 09:06:10;;;;;;;1.42;0.70;;;;;;;2.52;97.64;100754.16;5108379;28;20028;-67
2023/01/05 09:08:38;;;;;;;0.90;0.47;;;;;;;2.48;98.22;100774.00;5098687;28;20051;-67
2023/01/05 09:11:09;;;;;;;0.55;0.50;;;;;;;2.64;97.33;100760.09;5099060;28;20408;-67
2023/01/05 09:13:35;;;;;;;1.17;0.63;;;;;;;2.64;97.11;100782.19;5109444;28;20436;-67
2023/01/05 09:16:10;;;;;;;1.38;0.60;;;;;;;2.51;98.54;100792.31;5105871;28;20434;-67
2023/01/05 09:18:37;;;;;;;1.75;0.50;;;;;;;2.85;96.74;100797.00;5098569;28;20511;-67
2023/01/05 09:21:03;;;;;;;1.02;0.55;;;;;;;2.91;95.95;100809.72;5111189;28;20035;-67
2023/01/05 09:23:28;;;;;;;1.67;0.70;;;;;;;1.32;98.02;100638.13;5101841;28;20660;-66
2023/01/05 09:25:54;;;;;;;1.27;0.50;;;;;;;2.62;97.99;100816.03;5105151;28;20066;-65
2023/01/05 09:28:20;;;;;;;1.15;0.65;;;;;;;2.64;97.33;100824.69;5108785;28;20058;-66
2023/01/05 09:30:45;;;;;;;0.80;0.57;;;;;;;2.79;96.24;100833.84;5098497;28;20115;-66
2023/01/05 09:33:10;;;;;;;1.60;0.73;;;;;;;2.76;96.38;100841.28;5081782;28;20521;-66
2023/01/05 09:35:36;;;;;;;1.00;0.70;;;;;;;2.52;97.00;100847.13;5108761;28;20036;-66
2023/01/05 09:38:01;;;;;;;1.00;0.60;;;;;;;2.51;96.86;100840.13;5106708;28;20027;-66
2023/01/05 09:40:29;;;;;;;1.10;0.35;;;;;;;2.40;97.63;100858.91;5108114;28;20032;-65
2023/01/05 09:42:55;;;;;;;0.95;0.82;;;;;;;2.20;96.66;100840.38;5099514;28;20029;-66
2023/01/05 09:45:25;;;;;;;2.25;0.68;;;;;;;2.55;97.41;100870.72;5079930;28;20110;-66
2023/01/05 09:47:52;;;;;;;1.88;0.80;;;;;;;2.59;97.00;100880.09;5105714;28;20060;-65
2023/01/05 09:50:21;;;;;;;0.75;0.65;;;;;;;2.67;96.80;100879.34;5102953;28;20410;-65
2023/01/05 09:52:48;;;;;;;1.20;0.73;;;;;;;2.63;96.68;100897.41;5111673;28;20027;-65
2023/01/05 09:55:19;;;;;;;1.45;0.60;;;;;;;2.65;96.41;100905.22;5098139;28;20064;-66
2023/01/05 09:58:09;;;;;;;0.93;0.50;;;;;;;2.61;96.14;100912.63;5107550;28;20401;-68
2023/01/05 10:00:39;;;;;;;1.27;0.80;;;;;;;2.79;95.96;100912.72;5109058;28;20103;-66
2023/01/05 10:03:13;;;;;;;1.33;0.65;;;;;;;2.83;95.02;100920.25;5097088;28;20054;-66
2023/01/05 10:05:43;;;;;;;0.68;0.45;;;;;;;2.72;95.97;100923.09;5108566;28;20043;-65
2023/01/05 10:08:18;;;;;;;0.73;0.57;;;;;;;2.68;95.56;100918.22;5106254;28;20421;-64
2023/01/05 10:10:45;;;;;;;0.95;0.77;;;;;;;2.47;96.55;100931.69;5111490;28;20427;-65
2023/01/05 10:13:31;;;;;;;0.60;0.50;;;;;;;2.31;95.57;100901.25;5098487;28;20050;-65
2023/01/05 10:15:57;;;;;;;1.10;0.50;;;;;;;2.70;95.26;100942.81;5104588;28;20072;-64
2023/01/05 10:18:25;;;;;;;1.25;0.70;;;;;;;2.82;95.06;100962.94;5101290;28;20052;-65
2023/01/05 10:21:01;;;;;;;2.67;0.60;;;;;;;2.91;94.75;100966.53;5111227;28;20034;-65
2023/01/05 10:23:33;;;;;;;1.05;0.60;;;;;;;2.71;94.99;100981.69;5089836;28;20394;-64
2023/01/05 10:26:03;;;;;;;1.15;0.50;;;;;;;2.82;95.30;100992.16;5092845;28;20478;-66
2023/01/05 10:28:43;;;;;;;1.40;0.70;;;;;;;2.71;95.43;100993.16;5109519;28;20114;-65
2023/01/05 10:31:22;;;;;;;1.33;0.60;;;;;;;2.66;95.34;101005.22;5095911;28;20023;-65
2023/01/05 10:33:54;;;;;;;3.00;0.70;;;;;;;2.94;93.82;101016.72;5106568;28;20027;-65
2023/01/05 10:36:34;;;;;;;1.23;0.60;;;;;;;2.63;93.96;101000.19;5106896;28;20433;-66
2023/01/05 10:39:24;;;;;;;0.80;0.57;;;;;;;2.78;94.20;101031.47;5096753;28;20513;-65
2023/01/05 10:42:02;;;;;;;1.05;0.60;;;;;;;2.88;93.64;101042.09;5103795;28;20028;-64
2023/01/05 10:44:51;;;;;;;2.35;0.73;;;;;;;2.71;93.19;101035.66;5094420;28;20028;-65
2023/01/05 10:47:18;;;;;;;1.02;0.52;;;;;;;2.77;93.34;101052.88;5078944;28;20045;-65
2023/01/05 10:49:45;;;;;;;1.30;0.65;;;;;;;2.68;93.75;101057.22;5100736;28;20085;-65
2023/01/05 10:52:16;;;;;;;0.70;0.50;;;;;;;2.42;93.50;101026.88;5103901;28;20031;-65
2023/01/05 10:54:59;;;;;;;1.20;0.57;;;;;;;2.62;92.89;101055.13;5098904;28;20032;-66
2023/01/05 10:57:27;;;;;;;1.17;0.63;;;;;;;2.58;93.84;101069.66;5080977;28;20092;-66
2023/01/05 11:00:03;;;;;;;1.58;0.70;;;;;;;2.66;92.78;101071.63;5092247;28;20666;-67
2023/01/05 11:02:34;;;;;;;1.00;0.70;;;;;;;2.69;92.67;101069.53;5089981;28;20115;-67
2023/01/05 11:05:13;;;;;;;2.03;0.70;;;;;;;2.79;92.53;101070.34;5102651;28;20028;-66
2023/01/05 11:07:51;;;;;;;0.85;0.52;;;;;;;2.84;92.55;101083.19;5105624;28;20390;-66
2023/01/05 11:10:24;;;;;;;1.17;0.70;;;;;;;2.97;91.85;101090.88;5094372;28;20085;-66
2023/01/05 11:12:54;;;;;;;1.85;1.00;;;;;;;2.91;92.13;101088.78;5105408;28;20023;-70
2023/01/05 11:15:20;;;;;;;1.38;0.77;;;;;;;2.56;93.14;101096.38;5093245;28;20425;-68
2023/01/05 11:17:46;;;;;;;1.10;0.60;;;;;;;2.99;92.22;101096.91;5101483;28;20055;-65
2023/01/05 11:20:16;;;;;;;1.00;0.70;;;;;;;2.84;91.66;101093.81;5100884;28;20035;-66
2023/01/05 11:22:43;;;;;;;0.85;0.55;;;;;;;2.64;91.65;101106.28;5109671;28;20065;-65
2023/01/05 11:25:18;;;;;;;0.85;0.63;;;;;;;2.83;91.74;101108.94;5097174;28;20407;-66
2023/01/05 11:27:44;;;;;;;1.20;0.65;;;;;;;2.96;91.00;101108.66;5102603;28;20027;-68
2023/01/05 11:30:15;;;;;;;1.00;0.80;;;;;;;2.66;92.23;101122.94;5102088;28;20036;-67
2023/01/05 11:32:42;;;;;;;1.35;0.90;;;;;;;2.70;91.66;101113.69;5096355;28;20052;-67
2023/01/05 11:35:27;;;;;;;1.50;0.80;;;;;;;2.86;90.68;101134.41;5095117;28;20085;-65
2023/01/05 11:37:53;;;;;;;0.82;0.70;;;;;;;2.82;91.12;101136.50;5105035;27;20799;-67
2023/01/05 11:40:28;;;;;;;1.00;0.70;;;;;;;2.87;91.27;101148.53;5105590;28;20024;-64
2023/01/05 11:42:53;;;;;;;0.98;0.80;;;;;;;2.55;92.33;101149.63;5095466;28;20477;-65
2023/01/05 11:45:23;;;;;;;1.45;0.90;;;;;;;2.72;91.74;101154.28;5096028;28;20126;-65
2023/01/05 11:47:59;;;;;;;1.90;0.95;;;;;;;3.01;90.86;101153.41;5099970;28;20016;-64
2023/01/05 11:50:31;;;;;;;1.33;0.77;;;;;;;2.92;90.45;101160.44;5101381;28;20301;-65
2023/01/05 11:53:03;;;;;;;2.35;0.80;;;;;;;2.35;91.55;101112.44;5110353;28;20065;-65
2023/01/05 11:55:38;;;;;;;1.23;0.80;;;;;;;2.46;91.74;101158.44;5096840;28;20037;-65
2023/01/05 11:58:16;;;;;;;3.13;0.88;;;;;;;2.69;91.10;101174.97;5095571;28;20505;-65
2023/01/05 12:01:06;;;;;;;0.98;0.63;;;;;;;2.66;90.57;101185.88;5093591;28;20116;-64
2023/01/05 12:03:56;;;;;;;2.35;1.02;;;;;;;2.58;91.50;101192.72;5092704;28;20036;-64
2023/01/05 12:06:50;;;;;;;1.30;0.90;;;;;;;2.73;90.87;101202.94;5106477;28;20065;-64
2023/01/05 12:09:48;;;;;;;1.05;0.93;;;;;;;2.22;91.48;101174.72;5093401;28;20023;-64
2023/01/05 12:12:31;;;;;;;1.42;0.70;;;;;;;2.62;91.23;101205.72;5069288;28;20478;-65